Cold Spring, Kentucky
Current Conditions -  °F | °C
As of 4:53 PM on Monday 24 Nov 2014 (Local Time) from KLUK Reporting Station
Overcast Overcast  
Wind Chill: 38°   Ceiling: 4000
Heat Index: 46°   Visibility: 10mi
Dew Point: 32°   Wind: 24mph
Humidity: 58%   Direction: 240°WSW
Pressure: 29.78"   Gusts: 32mph
Location:  39.0173°N, 84.4405°W
Report Text: KLUK 242153Z 24021G28KT 10SM OVC040 08/00 A2978 RMK AO2 PK WND 24028/2151 SLP082 T00780000
Loading
Personal Weather Stations






























Interactive Weather Map New forecast layout! Learn more

10-Day Weather Forecast

Advertisements
Track Severe Weather on mobile